CST,Max TemperatureF,Mean TemperatureF,Min TemperatureF,Max Dew PointF,MeanDew PointF,Min DewpointF,Max Humidity, Mean Humidity, Min Humidity, Max Sea Level PressureIn, Mean Sea Level PressureIn, Min Sea Level PressureIn, Max VisibilityMiles, Mean VisibilityMiles, Min VisibilityMiles, Max Wind SpeedMPH, Mean Wind SpeedMPH, Max Gust SpeedMPH,PrecipitationIn, CloudCover, Events, WindDirDegrees
2013-11-1,57,48,38,40,37,35,92,70,47,29.92,29.75,29.59,10,10,10,29,11,40,0.05,2,Rain,283
2013-11-2,54,46,37,40,36,31,89,67,45,30.17,30.10,29.93,10,10,9,18,9,22,0.00,4,,305
2013-11-3,55,45,34,36,33,30,82,63,43,30.17,30.07,29.91,10,10,10,25,13,35,0.00,0,,160
2013-11-4,56,51,46,47,43,37,86,71,56,30.13,30.00,29.92,10,10,9,16,8,25,0.13,8,Rain,167
2013-11-5,58,53,48,57,50,43,100,90,80,30.14,29.99,29.82,10,6,1,20,11,29,0.67,8,Rain,137
2013-11-6,49,42,34,40,32,28,93,71,49,30.31,30.13,29.88,10,10,5,25,12,33,0.01,5,Rain,313
2013-11-7,50,41,31,34,27,22,92,63,33,30.38,30.34,30.29,10,10,10,22,9,28,0.00,0,,271
2013-11-8,61,46,30,35,29,21,78,57,36,30.33,30.05,29.84,10,10,10,35,14,45,0.00,0,,185
2013-11-9,61,52,42,34,33,31,70,51,32,30.31,30.11,29.92,10,10,10,22,13,27,0.00,0,,285
2013-11-10,51,41,31,31,28,25,78,58,38,30.44,30.34,30.20,10,10,8,14,8,20,0.00,2,,188
2013-11-11,51,35,18,43,29,12,77,62,46,30.71,30.32,30.14,10,10,9,25,15,33,T,7,Snow,341
2013-11-12,33,22,11,11,9,7,84,59,33,30.90,30.79,30.67,10,10,9,15,8,19,0.00,0,Snow,296
2013-11-13,48,34,19,19,13,10,68,45,21,30.63,30.38,30.12,10,10,10,23,14,30,0.00,0,Rain,199
2013-11-14,55,45,35,28,25,20,64,50,35,30.09,29.99,29.93,10,10,10,22,14,26,0.00,0,Rain,208
2013-11-15,56,44,32,40,32,26,78,61,43,29.95,29.86,29.73,10,10,8,17,10,24,0.00,0,,185
2013-11-16,70,58,46,56,52,41,86,72,57,29.72,29.50,29.37,10,10,8,33,16,43,0.05,7,Rain-Thunderstorm,183
2013-11-17,61,51,40,57,46,35,93,75,57,30.03,29.53,29.26,10,8,1,28,11,34,0.09,4,Rain-Thunderstorm,292
2013-11-18,52,43,34,34,30,28,89,67,44,30.28,30.20,30.03,10,10,10,16,9,21,0.00,0,,289
2013-11-19,57,45,33,30,27,23,75,54,32,30.27,30.15,30.01,10,10,10,23,13,32,0.00,2,,148
2013-11-20,49,43,37,37,34,22,86,61,36,30.02,29.95,29.87,10,9,4,22,12,29,0.86,7,Rain-Thunderstorm,152
2013-11-21,43,35,26,38,29,23,92,87,82,30.44,30.23,30.00,10,6,2,23,12,29,0.21,7,Rain-Snow,4
2013-11-22,28,23,17,22,18,11,88,81,73,30.65,30.57,30.42,10,10,4,22,10,28,T,4,Snow,332
2013-11-23,20,14,8,11,6,2,80,68,56,30.86,30.79,30.63,10,10,10,20,10,24,0.00,0,,349
2013-11-24,27,17,7,13,8,2,88,69,50,30.80,30.60,30.35,10,10,10,16,8,20,0.00,1,,193
2013-11-25,38,31,24,25,19,13,85,71,56,30.31,30.21,30.15,10,10,10,20,11,24,T,5,,224
2013-11-26,33,25,16,23,16,7,85,66,46,30.40,30.28,30.16,10,10,10,26,12,35,0.00,3,,329
2013-11-27,28,20,11,12,9,6,76,59,42,30.45,30.32,30.13,10,10,10,16,8,22,0.00,0,,242
2013-11-28,36,28,20,18,15,13,81,63,44,30.53,30.33,30.12,10,10,10,18,9,24,0.00,0,,330
2013-11-29,43,30,16,25,20,13,84,65,45,30.55,30.43,30.26,10,10,10,16,8,20,0.00,0,,150
2013-11-30,52,41,29,32,28,23,82,63,44,30.24,30.14,30.08,10,10,10,15,8,18,0.00,0,,223